Fannett, Texas
Current Conditions -  °F | °C
As of 1:53 PM on Thursday 30 Oct 2014 (Local Time) from KBPT Reporting Station
Clear Clear  
Wind Chill: 76°   Ceiling: Unl
Heat Index: 76°   Visibility: 10mi
Dew Point: 47°   Wind: 0mph
Humidity: 36%   Direction: NA
Pressure: 30.08"   Gusts: NA
Location:  29.9571°N, 94.1363°W
Report Text: KBPT 301853Z 00000KT 10SM CLR 24/08 A3008 RMK AO2 SLP186 T02440083
Loading
Personal Weather Stations






























Interactive Weather Map
Tropical Storm Tracking
New forecast layout! Learn more

10-Day Weather Forecast

Advertisements
Track Severe Weather on mobile